Alor Star, Malaysia

5:27 PM MYT on October 26, 2014 (GMT +0800)
Sultan Abdul Halim | Change Station
CLOSE
Current Station
Airport
Location: Sultan Abdul Halim,
Elevation: 16 ft
Nearby Weather Stations

Elev 16 ft 6.19 °N, 100.40 °E | Updated 27 minutes ago

Mostly Cloudy
Mostly Cloudy
88 °F
Feels Like 100 °F
N
8
Wind Variable Wind from West

Today
High -- | Low -- °F
--% Chance of Precip.
Yesterday
High -- | Low -- °F
Precip. -- in
7:04 AM 7:00 PM
Waxing Crescent, 7% visible
Pressure 29.77 in
Visibility 6.2 miles
Clouds Few 2200 ft
Mostly Cloudy 28000 ft
Heat Index 100 °F
Dew Point 77 °F
Humidity 70%
Rainfall 0.00 in
Snow Depth Not available.
UV 2 out of 12
Pollen Not available.
Air Quality Not available.
Flu Activity Not available.
METAR WMKA 260900Z 26007KT 240V300 9999 FEW022 BKN280 31/25 Q1008

More Conditions Fewer Conditions

Pressure 29.77 in
Visibility 6.2 miles
Clouds Few 2200 ft
Mostly Cloudy 28000 ft
Heat Index 100 °F
Dew Point 77 °F
Humidity 70%
Rainfall 0.00 in
Snow Depth Not available.
UV 2 out of 12
Pollen Not available.
Air Quality Not available.
Flu Activity Not available.
METAR WMKA 260900Z 26007KT 240V300 9999 FEW022 BKN280 31/25 Q1008

More Conditions Fewer Conditions

10-Day Weather Forecast

Almanac

Astronomy

Oct. 26, 2014 Rise Set
Actual Time 7:04 AM MYT 7:00 PM MYT
Civil Twilight 6:43 AM MYT 7:21 PM MYT
Nautical Twilight 6:18 AM MYT 7:46 PM MYT
Astronomical Twilight 5:53 AM MYT 8:10 PM MYT
Moon 8:54 AM MYT 9:04 PM MYT
Length of Visible Light 12h 38m
Length of Day
11h 55m
Tomorrow will be 0m 18s shorter.
Waxing Crescent, 7% of the Moon is Illuminated
Today
Waxing Crescent
Oct 30
First Quarter
Nov 6
Full
Nov 14
Last Quarter
Nov 22
New

Yesterday's Extremes

Country Highs Country Lows

Community

WunderPhotos

Upload Photos

1,765,130 photos uploaded!

Nearby

Snow Depth

Not available.

Earthquake Activity

City Distance Mag. Time & Date
No recent earthquake activity has been reported nearby.
Minimum magnitude displayed is 2.5.

Coastal Water Temperatures

Place Temperature
No Stations Reporting

Nearby Weather Stations